Time;durP1;ratioP1;P1;durP2;ratioP2;P2;SDS_P1;SDS_P2;PMS_P1;PMS_P2;Temp;Humidity;BMP_temperature;BMP_pressure;BME280_temperature;BME280_humidity;BME280_pressure;Samples;Min_cycle;Max_cycle;Signal;HPM_P1;HPM_P2
2022/07/03 03:02:10;;;;;;;4.97;2.63;;;15.90;99.90;;;;;;6241474;22;20020;-94
2022/07/03 04:45:04;;;;;;;4.80;2.78;;;15.50;99.90;;;;;;6185418;22;20029;-94
2022/07/03 05:34:06;;;;;;;4.13;2.53;;;17.70;99.90;;;;;;6224281;23;20027;-96
2022/07/03 05:52:05;;;;;;;4.03;2.50;;;18.00;99.90;;;;;;6218346;23;20025;-95
2022/07/03 06:07:27;;;;;;;2.70;1.35;;;18.40;99.90;;;;;;6216189;23;20059;-94
2022/07/03 06:51:19;;;;;;;1.98;0.88;;;19.00;99.90;;;;;;6245601;22;20109;-96
2022/07/03 06:54:04;;;;;;;2.05;1.00;;;19.00;99.90;;;;;;6194849;23;20020;-94
2022/07/03 06:56:29;;;;;;;2.72;1.00;;;19.00;99.90;;;;;;6195016;23;20020;-94
2022/07/03 06:58:55;;;;;;;3.20;1.00;;;19.00;99.90;;;;;;6195747;23;20017;-95
2022/07/03 07:01:21;;;;;;;1.63;0.85;;;19.00;99.90;;;;;;6195923;23;20438;-95
2022/07/03 07:03:47;;;;;;;2.25;0.90;;;19.00;99.90;;;;;;6195899;23;20341;-95
2022/07/03 07:06:13;;;;;;;1.80;0.80;;;19.00;99.90;;;;;;6221399;23;20020;-95
2022/07/03 07:09:19;;;;;;;1.75;0.80;;;19.00;99.90;;;;;;6199184;23;20021;-96
2022/07/03 07:12:10;;;;;;;1.73;0.68;;;19.00;99.90;;;;;;6198358;23;20016;-89
2022/07/03 07:14:35;;;;;;;1.40;0.60;;;18.90;99.90;;;;;;6194647;23;20047;-92
2022/07/03 07:17:01;;;;;;;1.20;0.70;;;18.90;99.90;;;;;;6194954;23;20008;-92
2022/07/03 07:19:27;;;;;;;2.53;0.70;;;18.90;99.90;;;;;;6194782;23;20020;-90
2022/07/03 07:21:52;;;;;;;1.42;0.70;;;19.00;99.90;;;;;;6194890;23;20018;-91
2022/07/03 07:24:18;;;;;;;1.83;1.00;;;19.30;99.90;;;;;;6194772;23;20012;-90
2022/07/03 07:26:44;;;;;;;2.60;1.05;;;19.50;99.90;;;;;;6194670;23;20445;-91
2022/07/03 07:29:10;;;;;;;2.35;0.90;;;19.60;99.90;;;;;;6194642;23;20023;-90
2022/07/03 07:31:35;;;;;;;3.72;0.80;;;19.70;99.90;;;;;;6194289;23;20016;-91
2022/07/03 07:34:04;;;;;;;1.92;0.90;;;19.80;99.90;;;;;;6194635;23;20437;-90
2022/07/03 07:36:30;;;;;;;1.23;0.50;;;20.10;99.90;;;;;;6197323;23;20032;-91
2022/07/03 07:38:56;;;;;;;2.25;0.60;;;20.10;99.90;;;;;;6203827;23;20096;-93
2022/07/03 07:41:22;;;;;;;1.55;0.70;;;20.10;99.90;;;;;;6194545;23;20052;-92
2022/07/03 07:43:48;;;;;;;1.67;0.52;;;19.90;99.90;;;;;;6196100;23;20019;-95
2022/07/03 07:46:13;;;;;;;2.55;0.82;;;19.80;99.90;;;;;;6219286;23;20095;-91
2022/07/03 07:48:39;;;;;;;1.35;0.60;;;19.60;99.90;;;;;;6194529;23;20350;-92
2022/07/03 07:51:05;;;;;;;1.45;0.60;;;19.50;99.90;;;;;;6217660;23;20341;-92
2022/07/03 07:53:30;;;;;;;2.53;1.88;;;19.60;99.90;;;;;;6219876;23;20405;-93
2022/07/03 07:55:56;;;;;;;1.38;0.60;;;19.60;99.90;;;;;;6219503;23;20429;-93
2022/07/03 07:58:22;;;;;;;1.90;0.57;;;19.80;99.90;;;;;;6194613;23;20016;-93
2022/07/03 08:06:34;;;;;;;1.30;0.60;;;19.90;99.90;;;;;;6220759;23;20018;-91
2022/07/03 08:09:00;;;;;;;1.30;0.60;;;19.90;99.90;;;;;;6204277;23;20072;-87
2022/07/03 08:11:26;;;;;;;1.73;0.60;;;19.90;99.90;;;;;;6194929;23;20161;-88
2022/07/03 08:13:52;;;;;;;1.00;0.60;;;19.90;99.90;;;;;;6197538;23;20465;-88
2022/07/03 08:16:17;;;;;;;0.80;0.55;;;19.90;99.90;;;;;;6222222;23;20011;-88
2022/07/03 08:18:43;;;;;;;1.25;0.50;;;19.90;99.90;;;;;;6204225;23;20012;-88
2022/07/03 08:21:09;;;;;;;1.23;0.40;;;19.90;99.90;;;;;;6195828;23;20023;-87
2022/07/03 08:23:34;;;;;;;1.23;0.50;;;19.90;99.90;;;;;;6195488;23;20016;-90
2022/07/03 08:26:00;;;;;;;0.77;0.38;;;20.00;99.90;;;;;;6195506;23;20016;-87
2022/07/03 08:28:27;;;;;;;1.35;0.40;;;20.00;99.90;;;;;;6195395;23;20099;-88
2022/07/03 08:30:52;;;;;;;;;;;20.00;99.90;;;;;;6195461;23;20024;-88
2022/07/03 08:33:18;;;;;;;0.80;0.38;;;20.10;99.90;;;;;;6269028;22;19915;-88
2022/07/03 08:35:44;;;;;;;0.80;0.40;;;20.10;99.90;;;;;;6220063;23;20016;-89
2022/07/03 08:38:09;;;;;;;1.40;0.38;;;20.20;99.90;;;;;;6195197;23;20027;-89
2022/07/03 08:40:36;;;;;;;0.73;0.40;;;20.20;99.90;;;;;;6246753;23;20012;-89
2022/07/03 08:43:03;;;;;;;0.65;0.30;;;20.20;99.90;;;;;;6220263;23;20012;-89
2022/07/03 08:45:30;;;;;;;0.73;0.30;;;20.20;99.90;;;;;;6247061;23;20016;-89
2022/07/03 08:47:58;;;;;;;0.82;0.30;;;20.20;99.90;;;;;;6219597;23;20095;-89
2022/07/03 08:50:25;;;;;;;0.70;0.30;;;20.20;99.90;;;;;;6194667;23;20377;-87
2022/07/03 08:52:51;;;;;;;0.60;0.30;;;20.30;99.90;;;;;;6193643;23;20024;-88
2022/07/03 08:55:19;;;;;;;0.43;0.30;;;20.30;99.90;;;;;;6200822;23;20030;-88
2022/07/03 08:57:46;;;;;;;0.50;0.30;;;20.30;99.90;;;;;;6169895;23;20022;-87
2022/07/03 09:00:17;;;;;;;0.70;0.30;;;20.30;99.90;;;;;;6194875;23;20046;-88
2022/07/03 09:02:45;;;;;;;3.13;0.30;;;20.30;99.90;;;;;;6068540;23;20073;-88
2022/07/03 09:05:12;;;;;;;0.55;0.30;;;20.30;99.90;;;;;;6189816;23;20055;-88
2022/07/03 09:07:40;;;;;;;0.90;0.30;;;20.40;99.90;;;;;;6194979;23;20020;-89
2022/07/03 09:10:08;;;;;;;0.90;0.30;;;20.40;99.90;;;;;;6195034;23;20091;-88
2022/07/03 09:12:35;;;;;;;0.55;0.20;;;20.50;99.90;;;;;;6246795;23;20015;-88
2022/07/03 09:15:02;;;;;;;;;;;20.50;99.90;;;;;;6195060;23;20020;-90
2022/07/03 09:17:28;;;;;;;0.95;0.35;;;20.50;99.90;;;;;;6245478;23;19916;-90
2022/07/03 09:20:00;;;;;;;1.90;0.43;;;20.50;99.90;;;;;;6245300;23;20020;-91
2022/07/03 09:22:36;;;;;;;1.83;0.20;;;20.50;99.90;;;;;;6192767;23;20020;-91
2022/07/03 09:25:14;;;;;;;0.73;0.30;;;20.50;99.90;;;;;;6192359;23;20020;-90
2022/07/03 09:27:52;;;;;;;0.47;0.13;;;20.50;99.90;;;;;;6194026;23;20016;-90
2022/07/03 09:30:19;;;;;;;0.52;0.30;;;20.60;99.90;;;;;;6168616;23;20022;-90
2022/07/03 09:32:57;;;;;;;0.43;0.20;;;20.70;99.90;;;;;;6169765;23;20089;-90
2022/07/03 09:35:27;;;;;;;0.45;0.20;;;20.70;99.90;;;;;;6195224;23;20030;-92
2022/07/03 09:38:01;;;;;;;0.57;0.28;;;20.80;99.90;;;;;;6171588;23;20014;-92
2022/07/03 09:40:46;;;;;;;0.70;0.22;;;20.80;99.90;;;;;;6195226;23;20330;-92
2022/07/03 09:51:12;;;;;;;0.93;0.30;;;20.80;99.90;;;;;;6245459;22;20028;-89
2022/07/03 09:54:00;;;;;;;0.50;0.15;;;20.90;99.90;;;;;;6195052;23;20047;-89
2022/07/03 09:56:34;;;;;;;0.68;0.10;;;21.00;99.90;;;;;;6195135;23;20020;-89
2022/07/03 09:59:38;;;;;;;0.40;0.20;;;21.10;99.90;;;;;;6198133;23;20022;-89
2022/07/03 10:02:11;;;;;;;1.52;0.50;;;21.20;99.90;;;;;;6188513;23;20430;-88
2022/07/03 10:04:36;;;;;;;1.38;0.22;;;21.30;99.90;;;;;;6194818;23;20342;-89
2022/07/03 10:07:03;;;;;;;0.10;0.10;;;21.40;99.90;;;;;;6195039;23;20019;-89
2022/07/03 10:09:31;;;;;;;1.08;0.30;;;21.40;99.90;;;;;;6218040;23;20083;-90
2022/07/03 10:11:58;;;;;;;0.30;0.10;;;21.50;99.90;;;;;;6193052;23;20116;-90
2022/07/03 10:14:29;;;;;;;0.43;0.20;;;21.60;99.90;;;;;;6194880;23;20019;-89
2022/07/03 10:16:59;;;;;;;0.85;0.20;;;21.60;99.90;;;;;;6194820;23;20016;-89
2022/07/03 10:19:30;;;;;;;1.60;0.30;;;21.60;99.90;;;;;;6194997;23;20019;-90
2022/07/03 10:22:01;;;;;;;0.20;0.10;;;21.70;99.90;;;;;;6193718;23;20016;-89
2022/07/03 10:24:29;;;;;;;1.40;0.30;;;21.80;99.90;;;;;;6193929;23;20346;-90
2022/07/03 10:26:57;;;;;;;0.20;0.20;;;21.80;99.90;;;;;;6193746;23;20016;-88
2022/07/03 10:29:25;;;;;;;0.75;0.30;;;21.80;99.90;;;;;;6218864;23;20012;-88
2022/07/03 10:31:51;;;;;;;1.15;0.20;;;21.90;99.90;;;;;;6194277;23;20024;-89
2022/07/03 10:34:21;;;;;;;0.73;0.30;;;21.90;99.90;;;;;;6194235;23;20012;-88
2022/07/03 10:36:53;;;;;;;0.20;0.20;;;22.00;99.90;;;;;;6219799;23;20012;-92
2022/07/03 10:39:50;;;;;;;0.65;0.30;;;22.00;99.90;;;;;;6219910;23;20027;-88
2022/07/03 10:45:12;;;;;;;1.23;0.30;;;22.10;99.90;;;;;;6219578;23;20024;-90
2022/07/03 10:47:39;;;;;;;1.02;0.40;;;22.30;99.90;;;;;;6194589;23;20074;-91
2022/07/03 10:50:11;;;;;;;0.65;0.30;;;22.30;99.90;;;;;;6194327;23;20454;-90
2022/07/03 10:52:38;;;;;;;0.73;0.28;;;22.30;99.90;;;;;;6194091;23;20020;-89
2022/07/03 10:55:06;;;;;;;1.33;0.30;;;22.30;99.90;;;;;;6194160;23;20012;-90
2022/07/03 10:57:33;;;;;;;0.50;0.20;;;22.20;99.90;;;;;;6194431;23;20031;-90
2022/07/03 11:00:00;;;;;;;0.40;0.20;;;22.20;99.90;;;;;;6194314;23;20430;-87
2022/07/03 11:02:38;;;;;;;0.73;0.30;;;22.20;99.90;;;;;;6194295;23;20020;-90
2022/07/03 11:05:09;;;;;;;0.63;0.30;;;22.20;99.90;;;;;;6220585;23;20020;-91
2022/07/03 11:08:04;;;;;;;2.00;0.40;;;22.10;99.80;;;;;;6220339;23;20004;-90
2022/07/03 11:10:32;;;;;;;0.63;0.20;;;22.00;99.40;;;;;;6195981;23;20082;-91
2022/07/03 11:13:15;;;;;;;1.00;0.30;;;22.10;99.90;;;;;;6219431;23;20031;-90
2022/07/03 11:15:44;;;;;;;0.28;0.20;;;22.30;99.70;;;;;;6194423;23;20056;-88
2022/07/03 11:18:27;;;;;;;1.10;0.40;;;22.40;99.60;;;;;;6193584;23;20012;-87
2022/07/03 11:20:53;;;;;;;0.98;0.30;;;22.50;99.00;;;;;;6243573;23;20483;-90
2022/07/03 11:23:28;;;;;;;1.33;0.30;;;22.60;98.90;;;;;;6193969;23;20052;-89
2022/07/03 11:25:55;;;;;;;1.08;0.10;;;22.80;98.60;;;;;;6193308;23;20406;-90
2022/07/03 11:28:34;;;;;;;0.30;0.20;;;22.90;98.30;;;;;;6193852;23;20095;-88
2022/07/03 11:31:23;;;;;;;0.28;0.20;;;23.00;97.60;;;;;;6193377;23;20349;-87
2022/07/03 11:33:51;;;;;;;0.55;0.28;;;23.10;97.60;;;;;;6216370;23;20541;-87
2022/07/03 11:36:17;;;;;;;1.13;0.40;;;23.20;97.90;;;;;;6191695;23;20020;-87
2022/07/03 11:38:44;;;;;;;0.68;0.32;;;23.10;97.90;;;;;;6220020;23;20090;-88
2022/07/03 11:41:12;;;;;;;3.28;0.30;;;23.00;97.90;;;;;;6198194;23;20540;-89
2022/07/03 11:43:49;;;;;;;1.88;0.40;;;22.80;98.00;;;;;;6213259;23;19996;-88
2022/07/03 11:46:20;;;;;;;2.95;0.50;;;22.70;97.80;;;;;;6235738;23;20012;-87
2022/07/03 11:48:46;;;;;;;3.25;0.50;;;22.60;98.40;;;;;;6248431;23;20020;-87
2022/07/03 11:51:13;;;;;;;2.28;0.40;;;22.60;99.00;;;;;;6172993;23;20456;-86
2022/07/03 11:53:40;;;;;;;0.98;0.50;;;22.50;99.60;;;;;;6194748;23;20503;-87
2022/07/03 11:56:10;;;;;;;2.50;0.40;;;22.50;99.90;;;;;;6194791;23;20022;-88
2022/07/03 11:58:44;;;;;;;1.08;0.50;;;22.40;99.90;;;;;;6195279;23;20015;-89
2022/07/03 12:01:25;;;;;;;1.98;0.60;;;22.30;99.90;;;;;;6194812;23;20022;-88
2022/07/03 12:04:09;;;;;;;1.48;0.47;;;22.30;99.90;;;;;;6195328;23;20452;-87
2022/07/03 12:06:44;;;;;;;2.55;0.70;;;22.50;99.90;;;;;;6195059;23;20022;-88
2022/07/03 12:09:27;;;;;;;1.60;0.60;;;22.60;99.90;;;;;;6195148;23;20029;-90
2022/07/03 12:11:57;;;;;;;2.92;0.68;;;22.70;99.90;;;;;;6169918;23;20347;-87
2022/07/03 12:14:35;;;;;;;1.90;0.60;;;22.70;99.90;;;;;;6195024;23;20097;-88
2022/07/03 12:17:01;;;;;;;1.20;0.40;;;22.80;99.90;;;;;;6093762;23;20025;-90
2022/07/03 12:19:27;;;;;;;1.83;0.60;;;22.90;99.90;;;;;;6194805;23;20015;-91
2022/07/03 12:21:52;;;;;;;2.35;0.60;;;22.80;99.90;;;;;;6193442;23;20072;-89
2022/07/03 12:24:18;;;;;;;2.78;0.50;;;22.70;99.90;;;;;;6095744;23;20022;-90
2022/07/03 12:26:44;;;;;;;1.85;0.55;;;22.60;99.90;;;;;;6170627;23;20018;-91
2022/07/03 12:29:29;;;;;;;1.10;0.43;;;22.50;99.90;;;;;;6170579;23;20014;-95
2022/07/03 12:31:55;;;;;;;2.00;0.50;;;22.40;99.90;;;;;;6170006;23;20019;-89
2022/07/03 12:34:20;;;;;;;1.00;0.40;;;22.30;99.90;;;;;;6170440;23;20045;-93
2022/07/03 12:36:59;;;;;;;1.52;0.40;;;22.40;99.90;;;;;;6195532;23;20026;-91
2022/07/03 12:40:01;;;;;;;0.95;0.30;;;22.60;99.90;;;;;;6170092;23;20018;-91
2022/07/03 12:42:27;;;;;;;2.35;0.40;;;22.80;99.90;;;;;;6047695;23;20025;-88
2022/07/03 12:44:57;;;;;;;1.50;0.47;;;23.10;99.90;;;;;;6189666;23;20014;-88
2022/07/03 12:47:24;;;;;;;1.15;0.45;;;23.30;99.90;;;;;;6093738;23;20018;-89
2022/07/03 12:49:57;;;;;;;2.00;0.43;;;23.40;99.90;;;;;;6169273;23;20029;-88
2022/07/03 12:52:23;;;;;;;1.20;0.50;;;23.40;99.90;;;;;;6214444;23;20096;-89
2022/07/03 12:54:48;;;;;;;1.58;0.52;;;23.40;99.90;;;;;;6215055;23;20399;-88
2022/07/03 13:00:10;;;;;;;1.88;0.60;;;23.10;99.90;;;;;;6240443;23;19916;-89
2022/07/03 13:02:40;;;;;;;3.50;0.77;;;23.20;99.90;;;;;;6189424;23;20086;-89
2022/07/03 13:05:23;;;;;;;1.13;0.40;;;23.10;99.90;;;;;;6214654;23;20439;-88
2022/07/03 13:07:51;;;;;;;2.40;0.57;;;22.90;99.90;;;;;;6214904;23;20078;-89
2022/07/03 13:10:19;;;;;;;1.50;0.60;;;22.80;99.90;;;;;;6214706;23;20060;-88
2022/07/03 13:12:51;;;;;;;1.60;0.55;;;22.60;99.90;;;;;;6214487;23;20020;-89
2022/07/03 13:15:19;;;;;;;2.42;0.50;;;22.50;99.90;;;;;;6189553;23;20035;-88
2022/07/03 13:17:53;;;;;;;1.52;0.50;;;22.40;99.90;;;;;;6189637;23;20013;-88
2022/07/03 13:20:23;;;;;;;1.55;0.50;;;22.50;99.90;;;;;;6214666;23;20056;-88
2022/07/03 13:22:51;;;;;;;1.08;0.50;;;22.50;99.90;;;;;;6214804;23;20017;-90
2022/07/03 13:25:17;;;;;;;1.50;0.50;;;22.50;99.90;;;;;;6214679;23;20446;-91
2022/07/03 13:27:45;;;;;;;0.60;0.40;;;22.40;99.90;;;;;;6190090;23;20394;-91
2022/07/03 13:30:11;;;;;;;1.90;0.50;;;22.40;99.90;;;;;;6190250;23;20021;-92
2022/07/03 13:32:37;;;;;;;1.13;0.43;;;22.30;99.90;;;;;;6216523;23;20023;-92
2022/07/03 13:35:04;;;;;;;0.80;0.43;;;22.30;99.90;;;;;;6189968;23;20017;-94
2022/07/03 13:37:29;;;;;;;1.95;0.50;;;22.20;99.90;;;;;;6214229;23;20026;-92
2022/07/03 13:39:55;;;;;;;0.75;0.30;;;22.10;99.90;;;;;;6165459;23;20044;-92
2022/07/03 13:42:21;;;;;;;1.05;0.50;;;22.00;99.90;;;;;;6214856;23;20516;-91
2022/07/03 13:44:47;;;;;;;1.42;0.43;;;21.90;99.90;;;;;;6189211;23;20043;-91
2022/07/03 13:47:13;;;;;;;2.67;0.50;;;21.80;99.90;;;;;;6188981;23;20027;-90
2022/07/03 13:49:38;;;;;;;1.48;0.40;;;21.80;99.90;;;;;;6214191;23;20048;-91
2022/07/03 13:52:04;;;;;;;1.23;0.50;;;21.80;99.90;;;;;;6193880;23;20022;-91
2022/07/03 13:54:30;;;;;;;0.85;0.40;;;21.70;99.90;;;;;;6219357;23;20039;-91
2022/07/03 13:56:56;;;;;;;0.95;0.40;;;21.60;99.90;;;;;;6219136;23;20012;-90
2022/07/03 13:59:22;;;;;;;1.73;0.55;;;21.50;99.90;;;;;;6194038;23;20122;-90
2022/07/03 14:01:47;;;;;;;1.88;0.50;;;21.40;99.90;;;;;;6193898;23;20016;-91
2022/07/03 14:04:13;;;;;;;0.70;0.40;;;21.40;99.90;;;;;;6194321;23;20334;-89
2022/07/03 14:06:39;;;;;;;2.22;0.45;;;21.20;99.90;;;;;;6218816;23;20424;-88
2022/07/03 14:09:05;;;;;;;0.90;0.40;;;21.10;99.90;;;;;;6246045;23;20048;-87
2022/07/03 14:11:31;;;;;;;0.88;0.40;;;21.00;99.90;;;;;;6219188;23;20012;-89
2022/07/03 14:13:56;;;;;;;1.30;0.47;;;20.90;99.90;;;;;;6194112;23;20074;-89
2022/07/03 14:16:23;;;;;;;1.67;0.60;;;20.70;99.90;;;;;;6194301;23;20068;-89
2022/07/03 14:18:49;;;;;;;1.63;0.70;;;20.60;99.90;;;;;;6219392;23;20341;-88
2022/07/03 14:21:15;;;;;;;1.98;0.55;;;20.50;99.90;;;;;;6219715;23;20012;-87
2022/07/03 14:23:40;;;;;;;1.45;0.60;;;20.40;99.90;;;;;;6194388;23;20099;-87
2022/07/03 14:26:06;;;;;;;1.48;0.63;;;20.20;99.90;;;;;;6219456;23;20020;-92
2022/07/03 14:33:54;;;;;;;1.92;0.80;;;19.60;99.90;;;;;;6219686;23;20429;-88
2022/07/03 14:36:20;;;;;;;2.35;0.80;;;19.30;99.90;;;;;;6223249;23;20016;-92
2022/07/03 14:38:47;;;;;;;;;;;19.10;99.90;;;;;;6218280;23;20091;-92
2022/07/03 14:41:13;;;;;;;2.45;0.70;;;18.90;99.90;;;;;;6245007;23;19915;-90
2022/07/03 14:43:39;;;;;;;2.50;0.50;;;18.70;99.90;;;;;;6219558;23;20055;-92
2022/07/03 14:46:04;;;;;;;1.38;0.73;;;18.60;99.90;;;;;;6194855;23;20017;-91
2022/07/03 14:48:30;;;;;;;1.63;0.60;;;18.50;99.90;;;;;;6194446;23;20024;-89
2022/07/03 14:50:59;;;;;;;1.35;0.70;;;18.30;99.90;;;;;;6187633;23;20019;-88
2022/07/03 14:53:24;;;;;;;2.42;1.00;;;18.10;99.90;;;;;;6168990;23;20116;-90
2022/07/03 14:55:52;;;;;;;2.13;0.80;;;18.00;99.90;;;;;;6168707;23;20026;-90
2022/07/03 14:58:23;;;;;;;2.17;0.90;;;18.00;99.90;;;;;;6168776;23;20021;-90
2022/07/03 15:00:58;;;;;;;2.45;1.02;;;18.00;99.90;;;;;;6169058;23;20019;-90
2022/07/03 15:03:28;;;;;;;2.30;1.10;;;17.90;99.90;;;;;;6193979;23;20102;-90
2022/07/03 15:05:56;;;;;;;2.03;0.90;;;17.90;99.90;;;;;;6168994;23;20025;-90
2022/07/03 15:08:42;;;;;;;2.40;1.10;;;18.00;99.90;;;;;;6168552;23;20030;-91
2022/07/03 15:14:02;;;;;;;1.25;0.73;;;18.00;99.90;;;;;;6197508;23;20041;-92
2022/07/03 15:16:31;;;;;;;1.15;0.68;;;18.00;99.90;;;;;;6194696;22;20014;-90
2022/07/03 15:18:59;;;;;;;2.05;0.75;;;17.90;99.90;;;;;;6206153;23;20029;-90
2022/07/03 15:21:29;;;;;;;2.30;1.02;;;17.90;99.90;;;;;;6171472;23;20388;-90
2022/07/03 15:24:23;;;;;;;2.70;1.30;;;18.00;99.90;;;;;;6170437;23;20022;-90
2022/07/03 15:27:07;;;;;;;2.67;1.20;;;18.10;99.90;;;;;;6196171;23;20491;-92
2022/07/03 15:29:49;;;;;;;;;;;;;;;;;;;;;
2022/07/03 15:32:46;;;;;;;2.22;0.82;;;18.20;99.90;;;;;;6194959;23;20399;-91
2022/07/03 15:35:25;;;;;;;2.55;0.90;;;18.30;99.90;;;;;;6167100;23;20062;-90
2022/07/03 15:38:02;;;;;;;2.17;0.90;;;18.30;99.90;;;;;;6170401;23;20509;-90
2022/07/03 15:40:33;;;;;;;2.85;1.05;;;18.40;99.90;;;;;;6170193;23;20026;-92
2022/07/03 15:43:11;;;;;;;1.63;1.00;;;18.40;99.90;;;;;;6170283;23;20020;-90
2022/07/03 15:46:08;;;;;;;2.28;0.68;;;18.40;99.90;;;;;;6171198;23;20022;-94
2022/07/03 15:48:55;;;;;;;2.22;0.60;;;18.50;99.90;;;;;;6139821;23;20018;-91
2022/07/03 15:51:50;;;;;;;1.92;0.60;;;18.60;99.90;;;;;;6186695;23;20084;-93
2022/07/03 15:54:47;;;;;;;3.47;0.60;;;18.60;99.90;;;;;;6174430;23;20034;-92
2022/07/03 15:57:50;;;;;;;1.57;0.60;;;18.60;99.90;;;;;;6178476;23;20017;-91
2022/07/03 16:00:21;;;;;;;1.00;0.50;;;18.50;99.90;;;;;;6166521;23;20017;-92
2022/07/03 16:02:52;;;;;;;1.80;0.60;;;18.40;99.90;;;;;;6166573;23;20088;-92
2022/07/03 16:05:29;;;;;;;1.02;0.60;;;18.40;99.90;;;;;;6190808;23;20442;-93
2022/07/03 16:07:59;;;;;;;2.10;1.00;;;18.40;99.90;;;;;;6190851;23;20024;-92
2022/07/03 16:10:36;;;;;;;3.05;0.63;;;18.30;99.90;;;;;;6166533;23;20070;-90
2022/07/03 16:13:08;;;;;;;1.20;0.60;;;18.40;99.90;;;;;;6166264;23;20021;-93
2022/07/03 16:15:35;;;;;;;1.88;0.60;;;18.40;99.90;;;;;;6166301;23;20012;-91
2022/07/03 16:18:02;;;;;;;2.10;0.80;;;18.30;99.90;;;;;;6190698;23;20091;-90
2022/07/03 16:20:29;;;;;;;2.03;0.80;;;18.30;99.90;;;;;;6190723;23;20013;-92
2022/07/03 16:23:07;;;;;;;2.42;0.75;;;18.30;99.90;;;;;;6189969;23;20020;-89
2022/07/03 16:25:36;;;;;;;1.63;0.80;;;18.30;99.90;;;;;;6190842;23;20028;-89
2022/07/03 16:28:04;;;;;;;1.55;0.80;;;18.30;99.90;;;;;;6165759;23;20016;-93
2022/07/03 16:30:33;;;;;;;1.88;0.80;;;18.30;99.90;;;;;;6217091;23;20099;-89
2022/07/03 16:33:02;;;;;;;3.67;1.00;;;18.20;99.90;;;;;;6165902;23;20777;-92
2022/07/03 16:35:39;;;;;;;2.35;0.73;;;18.30;99.90;;;;;;6190365;23;20040;-90
2022/07/03 16:38:07;;;;;;;2.15;1.00;;;18.30;99.90;;;;;;6190404;23;20091;-92
2022/07/03 16:40:33;;;;;;;2.17;0.90;;;18.30;99.90;;;;;;6212077;23;20027;-86
2022/07/03 16:43:02;;;;;;;1.80;0.82;;;18.30;99.90;;;;;;6179778;23;20012;-96
2022/07/03 16:45:31;;;;;;;2.05;0.80;;;18.40;99.90;;;;;;6190913;23;20461;-90
2022/07/03 16:48:09;;;;;;;2.35;1.17;;;18.40;99.90;;;;;;6165419;23;20017;-93
2022/07/03 16:50:34;;;;;;;2.20;0.90;;;18.40;99.90;;;;;;6190411;23;20092;-88
2022/07/03 16:53:00;;;;;;;2.45;0.90;;;18.30;99.90;;;;;;6158668;23;20061;-88
2022/07/03 16:55:26;;;;;;;2.28;0.90;;;18.30;99.90;;;;;;6194955;23;20116;-94
2022/07/03 16:57:55;;;;;;;2.78;0.93;;;18.30;99.90;;;;;;6171444;23;20440;-94
2022/07/03 17:00:27;;;;;;;1.75;0.80;;;18.20;99.90;;;;;;6094145;23;20061;-93
2022/07/03 17:02:54;;;;;;;2.78;1.50;;;18.20;99.90;;;;;;6195402;23;20026;-88
2022/07/03 17:05:22;;;;;;;1.75;0.88;;;18.20;99.90;;;;;;6195391;23;20056;-93
2022/07/03 17:07:50;;;;;;;3.30;1.10;;;18.20;99.90;;;;;;6198330;23;20514;-91
2022/07/03 17:10:19;;;;;;;2.90;1.10;;;18.10;99.90;;;;;;6201501;23;20448;-87
2022/07/03 17:12:49;;;;;;;1.77;1.00;;;18.10;99.90;;;;;;6193857;23;20057;-90
2022/07/03 17:15:17;;;;;;;1.60;0.80;;;18.10;99.90;;;;;;6169985;23;20042;-92
2022/07/03 17:17:57;;;;;;;2.08;0.90;;;18.10;99.90;;;;;;6093858;23;20351;-94
2022/07/03 17:20:25;;;;;;;1.77;0.80;;;18.10;99.90;;;;;;6195008;23;20025;-87
2022/07/03 17:22:56;;;;;;;2.80;1.02;;;18.00;99.90;;;;;;6195003;23;20077;-89
2022/07/03 17:25:27;;;;;;;3.30;1.38;;;18.10;99.90;;;;;;6195081;23;20050;-86
2022/07/03 17:27:58;;;;;;;2.00;0.70;;;18.00;99.90;;;;;;6194770;23;20329;-91
2022/07/03 17:30:43;;;;;;;2.72;0.77;;;18.00;99.90;;;;;;6195124;23;20402;-90
2022/07/03 17:33:11;;;;;;;2.67;0.93;;;17.90;99.90;;;;;;6068522;23;20023;-93
2022/07/03 17:35:55;;;;;;;1.95;0.73;;;17.90;99.90;;;;;;6194843;23;20025;-91
2022/07/03 17:38:22;;;;;;;2.72;0.90;;;17.90;99.90;;;;;;6094510;23;20022;-88
2022/07/03 17:40:48;;;;;;;1.58;0.80;;;17.90;99.90;;;;;;6196102;23;20021;-89
2022/07/03 17:43:14;;;;;;;2.05;1.02;;;17.90;99.90;;;;;;6097452;23;20054;-94
2022/07/03 17:45:43;;;;;;;1.80;1.00;;;17.90;99.90;;;;;;6204332;23;20022;-88
2022/07/03 17:48:10;;;;;;;2.30;0.95;;;17.90;99.90;;;;;;6071890;23;20029;-89
2022/07/03 17:50:35;;;;;;;2.78;1.00;;;17.90;99.90;;;;;;6097678;23;20073;-87
2022/07/03 17:53:01;;;;;;;2.17;0.90;;;17.80;99.90;;;;;;6215379;23;20024;-85
2022/07/03 17:55:28;;;;;;;2.83;1.20;;;17.80;99.90;;;;;;6094729;23;20026;-86
2022/07/03 17:57:55;;;;;;;2.20;1.30;;;17.90;99.90;;;;;;6093351;23;20352;-87
2022/07/03 18:00:23;;;;;;;2.83;1.05;;;17.90;99.90;;;;;;6194145;23;20019;-87
2022/07/03 18:02:52;;;;;;;2.83;1.23;;;17.80;99.90;;;;;;6194597;23;20068;-85
2022/07/03 18:05:19;;;;;;;2.00;1.02;;;17.80;99.90;;;;;;6194299;23;20022;-87
2022/07/03 18:07:57;;;;;;;2.70;1.00;;;17.90;99.90;;;;;;6194402;23;20093;-91
2022/07/03 18:10:33;;;;;;;3.25;1.20;;;17.90;99.90;;;;;;6093618;23;20018;-88
2022/07/03 18:13:16;;;;;;;2.58;1.35;;;17.90;99.90;;;;;;6169164;23;20017;-88
2022/07/03 18:15:48;;;;;;;3.20;1.50;;;17.90;99.90;;;;;;6194406;23;20080;-92
2022/07/03 18:18:25;;;;;;;3.50;1.30;;;17.90;99.90;;;;;;6194678;23;20109;-92
2022/07/03 18:20:53;;;;;;;3.30;1.33;;;17.90;99.90;;;;;;6194109;23;20025;-93
2022/07/03 18:23:21;;;;;;;3.53;1.70;;;18.00;99.90;;;;;;6194292;23;20017;-91
2022/07/03 18:25:48;;;;;;;3.42;1.48;;;18.00;99.90;;;;;;6169025;23;20452;-90
2022/07/03 18:28:16;;;;;;;4.28;1.55;;;18.00;99.90;;;;;;6169232;23;20097;-91
2022/07/03 18:30:45;;;;;;;3.13;1.60;;;18.00;99.90;;;;;;6194091;23;20054;-94
2022/07/03 18:33:12;;;;;;;3.15;1.45;;;18.00;99.90;;;;;;6170367;23;20053;-91
2022/07/03 18:35:44;;;;;;;3.55;1.35;;;18.00;99.90;;;;;;6191963;23;20014;-93
2022/07/03 18:38:12;;;;;;;2.45;1.30;;;17.90;99.90;;;;;;6194977;23;20034;-91
2022/07/03 18:40:39;;;;;;;3.30;1.30;;;17.90;99.90;;;;;;6195777;23;20015;-95
2022/07/03 18:43:05;;;;;;;3.30;1.48;;;17.90;99.90;;;;;;6200334;23;20027;-92
2022/07/03 18:45:31;;;;;;;2.72;1.13;;;17.80;99.90;;;;;;6100565;23;20029;-91
2022/07/03 18:47:57;;;;;;;2.85;1.33;;;17.80;99.90;;;;;;6194624;23;20022;-90
2022/07/03 18:50:31;;;;;;;3.17;1.40;;;17.70;99.90;;;;;;6143561;23;20061;-92
2022/07/03 18:53:22;;;;;;;4.20;2.30;;;17.70;99.90;;;;;;6216458;23;20098;-91
2022/07/03 18:55:56;;;;;;;3.22;1.27;;;17.70;99.90;;;;;;6162620;23;20023;-92
2022/07/03 18:58:38;;;;;;;2.92;1.23;;;17.70;99.90;;;;;;6218995;23;20013;-89
2022/07/03 19:01:07;;;;;;;2.08;1.00;;;17.60;99.90;;;;;;6217489;23;20059;-94
2022/07/03 19:03:50;;;;;;;2.05;0.90;;;17.60;99.90;;;;;;6217068;23;20091;-96
2022/07/03 19:06:24;;;;;;;2.35;1.00;;;17.50;99.90;;;;;;6218188;23;20052;-93
2022/07/03 19:09:26;;;;;;;2.17;0.73;;;17.50;99.90;;;;;;6215609;23;20021;-85
2022/07/03 19:12:08;;;;;;;1.95;0.93;;;17.50;99.90;;;;;;6193240;23;20017;-92
2022/07/03 19:14:34;;;;;;;3.08;0.98;;;17.50;99.90;;;;;;6188627;23;20052;-91
2022/07/03 19:17:13;;;;;;;2.92;0.90;;;17.50;99.90;;;;;;6188635;23;20020;-87
2022/07/03 19:19:39;;;;;;;2.38;0.90;;;17.50;99.90;;;;;;6213749;23;20016;-90
2022/07/03 19:22:06;;;;;;;1.50;0.70;;;17.40;99.90;;;;;;6215260;23;20035;-88
2022/07/03 19:24:32;;;;;;;2.55;0.80;;;17.40;99.90;;;;;;6213663;23;20027;-87
2022/07/03 19:27:00;;;;;;;2.22;0.60;;;17.40;99.90;;;;;;6213514;23;20048;-87
2022/07/03 19:29:26;;;;;;;1.38;0.60;;;17.30;99.90;;;;;;6215234;23;20091;-88
2022/07/03 19:31:52;;;;;;;2.20;0.70;;;17.30;99.90;;;;;;6213862;23;20052;-87
2022/07/03 19:34:19;;;;;;;2.20;0.70;;;17.30;99.90;;;;;;6216200;23;20013;-87
2022/07/03 19:36:45;;;;;;;;;;;17.20;99.90;;;;;;6232067;23;20025;-89
2022/07/03 19:39:10;;;;;;;2.22;1.00;;;17.20;99.90;;;;;;6276069;22;19942;-90
2022/07/03 19:41:36;;;;;;;2.15;0.80;;;17.20;99.90;;;;;;6189029;23;20096;-87
2022/07/03 19:44:03;;;;;;;2.35;0.90;;;17.10;99.90;;;;;;6213580;23;20013;-87
2022/07/03 19:46:29;;;;;;;1.65;0.80;;;17.10;99.90;;;;;;6215284;23;20032;-88
2022/07/03 19:48:56;;;;;;;1.70;0.77;;;17.00;99.90;;;;;;6213870;23;20013;-92
2022/07/03 19:51:25;;;;;;;1.98;0.80;;;17.00;99.90;;;;;;6213695;23;20020;-86
2022/07/03 19:53:51;;;;;;;2.25;0.80;;;16.90;99.90;;;;;;6232734;23;20103;-86
2022/07/03 19:56:17;;;;;;;1.98;0.75;;;16.90;99.90;;;;;;6192980;23;20018;-86
2022/07/03 19:58:43;;;;;;;2.03;0.68;;;16.80;99.90;;;;;;6168610;23;20356;-86
2022/07/03 20:01:09;;;;;;;2.40;0.70;;;16.80;99.90;;;;;;6239123;23;20023;-88
2022/07/03 20:03:35;;;;;;;1.92;0.65;;;16.70;99.90;;;;;;6195161;23;20016;-87
2022/07/03 20:06:01;;;;;;;2.55;0.70;;;16.70;99.90;;;;;;6247585;23;20023;-87
2022/07/03 20:08:27;;;;;;;3.10;0.80;;;16.60;99.90;;;;;;6247113;23;20323;-91
2022/07/03 20:10:53;;;;;;;2.42;0.82;;;16.50;99.90;;;;;;6222416;23;20017;-87